createdAt,value
2022-09-18T00:01:42.558Z,-78
2022-09-18T00:04:15.343Z,-78
2022-09-18T00:06:45.868Z,-78
2022-09-18T00:09:16.966Z,-77
2022-09-18T00:11:50.541Z,-78
2022-09-18T00:14:21.986Z,-78
2022-09-18T00:16:51.338Z,-78
2022-09-18T00:19:20.410Z,-78
2022-09-18T00:21:51.693Z,-78
2022-09-18T00:24:22.592Z,-78
2022-09-18T00:26:52.734Z,-78
2022-09-18T00:29:21.104Z,-78
2022-09-18T00:31:49.601Z,-78
2022-09-18T00:34:18.184Z,-78
2022-09-18T00:36:47.065Z,-78
2022-09-18T00:39:16.359Z,-78
2022-09-18T00:41:46.075Z,-80
2022-09-18T00:44:42.490Z,-80
2022-09-18T00:47:30.072Z,-79
2022-09-18T00:50:08.565Z,-79
2022-09-18T00:52:49.402Z,-79
2022-09-18T00:55:22.451Z,-80
2022-09-18T00:57:55.108Z,-80
2022-09-18T01:00:26.212Z,-79
2022-09-18T01:02:55.107Z,-79
2022-09-18T01:05:45.623Z,-79
2022-09-18T01:08:36.982Z,-80
2022-09-18T01:11:37.466Z,-79
2022-09-18T01:14:24.680Z,-79
2022-09-18T01:17:15.556Z,-79
2022-09-18T01:20:36.746Z,-79
2022-09-18T01:23:36.738Z,-79
2022-09-18T01:26:27.879Z,-79
2022-09-18T01:29:01.780Z,-79
2022-09-18T01:31:39.914Z,-79
2022-09-18T01:34:14.926Z,-79
2022-09-18T01:36:50.235Z,-78
2022-09-18T01:39:28.650Z,-79
2022-09-18T01:41:59.214Z,-78
2022-09-18T01:44:34.899Z,-79
2022-09-18T01:47:11.846Z,-77
2022-09-18T01:49:44.757Z,-78
2022-09-18T01:52:22.382Z,-78
2022-09-18T01:54:55.248Z,-78
2022-09-18T01:57:29.173Z,-78
2022-09-18T02:00:08.038Z,-77
2022-09-18T02:02:43.533Z,-78
2022-09-18T02:05:19.812Z,-77
2022-09-18T02:07:59.729Z,-78
2022-09-18T02:10:32.392Z,-78
2022-09-18T02:13:04.192Z,-77
2022-09-18T02:15:41.341Z,-78
2022-09-18T02:18:19.317Z,-78
2022-09-18T02:20:48.862Z,-78
2022-09-18T02:23:18.316Z,-77
2022-09-18T02:25:53.165Z,-77
2022-09-18T02:28:26.311Z,-77
2022-09-18T02:30:56.249Z,-77
2022-09-18T02:33:27.695Z,-78
2022-09-18T02:36:25.016Z,-78
2022-09-18T02:39:09.003Z,-77
2022-09-18T02:41:50.505Z,-76
2022-09-18T02:44:26.804Z,-78
2022-09-18T02:47:08.804Z,-78
2022-09-18T02:49:51.067Z,-78
2022-09-18T02:52:26.648Z,-77
2022-09-18T02:55:02.024Z,-77
2022-09-18T02:57:37.136Z,-77
2022-09-18T03:00:11.146Z,-78
2022-09-18T03:02:41.450Z,-77
2022-09-18T03:05:10.651Z,-78
2022-09-18T03:07:39.457Z,-77
2022-09-18T03:10:08.785Z,-77
2022-09-18T03:12:37.934Z,-76
2022-09-18T03:15:07.929Z,-77
2022-09-18T03:17:36.533Z,-77
2022-09-18T03:20:07.646Z,-77
2022-09-18T03:22:36.122Z,-77
2022-09-18T03:25:05.076Z,-77
2022-09-18T03:27:33.448Z,-77
2022-09-18T03:30:01.889Z,-77
2022-09-18T03:32:30.300Z,-77
2022-09-18T03:34:58.649Z,-78
2022-09-18T03:37:28.454Z,-77
2022-09-18T03:39:56.941Z,-77
2022-09-18T03:42:25.361Z,-77
2022-09-18T03:44:53.855Z,-77
2022-09-18T03:47:22.197Z,-78
2022-09-18T03:49:50.700Z,-78
2022-09-18T03:52:19.385Z,-78
2022-09-18T03:54:49.154Z,-78
2022-09-18T03:57:17.554Z,-79
2022-09-18T03:59:45.918Z,-78
2022-09-18T04:02:14.422Z,-79
2022-09-18T04:04:42.865Z,-82
2022-09-18T04:07:11.310Z,-79
2022-09-18T04:09:40.065Z,-80
2022-09-18T04:12:09.923Z,-80
2022-09-18T04:14:38.317Z,-79
2022-09-18T04:17:06.792Z,-79
2022-09-18T04:19:35.187Z,-80
2022-09-18T04:22:03.952Z,-80
2022-09-18T04:24:32.395Z,-79
2022-09-18T04:27:00.814Z,-79
2022-09-18T04:29:30.566Z,-80
2022-09-18T04:31:59.082Z,-80
2022-09-18T04:34:27.448Z,-80
2022-09-18T04:36:55.828Z,-80
2022-09-18T04:39:24.241Z,-79
2022-09-18T04:41:52.689Z,-79
2022-09-18T04:44:21.109Z,-79
2022-09-18T04:46:50.963Z,-79
2022-09-18T04:49:19.879Z,-80
2022-09-18T04:51:48.444Z,-80
2022-09-18T04:54:17.442Z,-80
2022-09-18T04:56:45.858Z,-80
2022-09-18T04:59:14.345Z,-80
2022-09-18T05:01:42.749Z,-80
2022-09-18T05:04:12.970Z,-80
2022-09-18T05:06:41.748Z,-79
2022-09-18T05:09:10.192Z,-80
2022-09-18T05:11:38.579Z,-80
2022-09-18T05:14:06.989Z,-80
2022-09-18T05:16:35.564Z,-80
2022-09-18T05:19:04.310Z,-80
2022-09-18T05:21:34.146Z,-80
2022-09-18T05:24:02.791Z,-80
2022-09-18T05:26:31.520Z,-80
2022-09-18T05:28:59.934Z,-80
2022-09-18T05:31:28.408Z,-80
2022-09-18T05:33:57.055Z,-81
2022-09-18T05:36:25.501Z,-80
2022-09-18T05:38:55.274Z,-81
2022-09-18T05:41:23.617Z,-80
2022-09-18T05:43:52.002Z,-81
2022-09-18T05:46:20.458Z,-81
2022-09-18T05:48:50.229Z,-81
2022-09-18T05:51:18.674Z,-80
2022-09-18T05:53:48.559Z,-80
2022-09-18T05:56:18.803Z,-81
2022-09-18T05:58:47.176Z,-82
2022-09-18T06:01:15.670Z,-81
2022-09-18T06:03:44.078Z,-81
2022-09-18T06:06:12.466Z,-81
2022-09-18T06:08:40.911Z,-82
2022-09-18T06:11:09.633Z,-80
2022-09-18T06:13:39.546Z,-81
2022-09-18T06:16:08.021Z,-81
2022-09-18T06:18:36.607Z,-80
2022-09-18T06:21:05.396Z,-80
2022-09-18T06:23:34.233Z,-80
2022-09-18T06:26:05.716Z,-79
2022-09-18T06:28:35.209Z,-80
2022-09-18T06:31:06.125Z,-80
2022-09-18T06:33:36.308Z,-80
2022-09-18T06:36:09.265Z,-81
2022-09-18T06:38:37.709Z,-80
2022-09-18T06:41:06.517Z,-80
2022-09-18T06:43:35.023Z,-80
2022-09-18T06:46:05.828Z,-80
2022-09-18T06:48:34.354Z,-80
2022-09-18T06:51:02.830Z,-79
2022-09-18T06:53:31.231Z,-81
2022-09-18T06:56:03.323Z,-80
2022-09-18T06:58:31.971Z,-80
2022-09-18T07:01:01.347Z,-79
2022-09-18T07:03:31.236Z,-77
2022-09-18T07:05:59.662Z,-77
2022-09-18T07:08:28.009Z,-77
2022-09-18T07:11:01.443Z,-77
2022-09-18T07:13:33.132Z,-78
2022-09-18T07:16:01.929Z,-78
2022-09-18T07:18:31.780Z,-78
2022-09-18T07:21:01.441Z,-77
2022-09-18T07:23:33.039Z,-78
2022-09-18T07:26:02.046Z,-78
2022-09-18T07:28:30.677Z,-78
2022-09-18T07:31:05.269Z,-78
2022-09-18T07:33:35.401Z,-78
2022-09-18T07:36:05.051Z,-78
2022-09-18T07:38:34.477Z,-78
2022-09-18T07:41:03.953Z,-79
2022-09-18T07:43:33.268Z,-78
2022-09-18T07:46:01.950Z,-79
2022-09-18T07:48:30.798Z,-79
2022-09-18T07:51:00.596Z,-78
2022-09-18T07:53:29.630Z,-78
2022-09-18T07:55:58.152Z,-78
2022-09-18T07:58:26.950Z,-77
2022-09-18T08:00:55.433Z,-77
2022-09-18T08:03:25.410Z,-77
2022-09-18T08:05:54.950Z,-78
2022-09-18T08:08:25.400Z,-77
2022-09-18T08:10:56.310Z,-78
2022-09-18T08:13:24.751Z,-77
2022-09-18T08:15:53.216Z,-78
2022-09-18T08:18:22.962Z,-78
2022-09-18T08:20:51.363Z,-78
2022-09-18T08:23:19.782Z,-79
2022-09-18T08:25:49.650Z,-79
2022-09-18T08:28:18.611Z,-78
2022-09-18T08:30:47.006Z,-79
2022-09-18T08:33:15.636Z,-78
2022-09-18T08:35:44.254Z,-78
2022-09-18T08:38:12.767Z,-79
2022-09-18T08:41:12.814Z,-78
2022-09-18T08:43:57.291Z,-78
2022-09-18T08:46:35.454Z,-78
2022-09-18T08:49:23.405Z,-78
2022-09-18T08:52:01.307Z,-77
2022-09-18T08:54:45.425Z,-78
2022-09-18T08:57:24.432Z,-79
2022-09-18T08:59:58.785Z,-78
2022-09-18T09:02:42.148Z,-78
2022-09-18T09:05:15.982Z,-76
2022-09-18T09:08:15.373Z,-76
2022-09-18T09:10:56.507Z,-76
2022-09-18T09:13:56.270Z,-76
2022-09-18T09:16:36.177Z,-76
2022-09-18T09:19:31.207Z,-76
2022-09-18T09:22:14.143Z,-77
2022-09-18T09:25:01.608Z,-77
2022-09-18T09:27:39.539Z,-77
2022-09-18T09:30:18.895Z,-79
2022-09-18T09:32:56.535Z,-76
2022-09-18T09:35:30.817Z,-77
2022-09-18T09:38:08.036Z,-76
2022-09-18T09:40:45.670Z,-76
2022-09-18T09:43:26.126Z,-77
2022-09-18T09:46:01.185Z,-76
2022-09-18T09:48:39.568Z,-77
2022-09-18T09:51:18.638Z,-77
2022-09-18T09:53:47.385Z,-78
2022-09-18T09:56:23.961Z,-77
2022-09-18T09:59:05.037Z,-78
2022-09-18T10:01:44.676Z,-78
2022-09-18T10:04:29.322Z,-78
2022-09-18T10:07:03.987Z,-78
2022-09-18T10:09:47.105Z,-77
2022-09-18T10:12:28.502Z,-77
2022-09-18T10:15:06.846Z,-78
2022-09-18T10:17:41.465Z,-78
2022-09-18T10:20:17.397Z,-78
2022-09-18T10:22:47.868Z,-78
2022-09-18T10:25:27.698Z,-78
2022-09-18T10:27:56.044Z,-78
2022-09-18T10:30:24.482Z,-78
2022-09-18T10:32:54.206Z,-79
2022-09-18T10:35:46.434Z,-78
2022-09-18T10:38:37.813Z,-78
2022-09-18T10:41:26.096Z,-78
2022-09-18T10:44:05.430Z,-78
2022-09-18T10:46:37.398Z,-77
2022-09-18T10:49:27.144Z,-78
2022-09-18T10:52:28.608Z,-78
2022-09-18T10:55:19.493Z,-78
2022-09-18T10:58:08.285Z,-79
2022-09-18T11:00:47.694Z,-78
2022-09-18T11:03:30.134Z,-78
2022-09-18T11:06:04.521Z,-78
2022-09-18T11:08:38.121Z,-78
2022-09-18T11:11:23.591Z,-78
2022-09-18T11:13:58.449Z,-78
2022-09-18T11:16:31.010Z,-78
2022-09-18T11:19:07.735Z,-78
2022-09-18T11:21:46.542Z,-79
2022-09-18T11:24:24.931Z,-78
2022-09-18T11:26:55.955Z,-79
2022-09-18T11:29:32.851Z,-78
2022-09-18T11:32:14.465Z,-78
2022-09-18T11:34:50.113Z,-78
2022-09-18T11:37:34.318Z,-78
2022-09-18T11:40:06.978Z,-78
2022-09-18T11:42:42.906Z,-78
2022-09-18T11:45:39.849Z,-79
2022-09-18T11:48:25.218Z,-78
2022-09-18T11:50:58.074Z,-79
2022-09-18T11:53:33.235Z,-79
2022-09-18T11:56:09.205Z,-79
2022-09-18T11:58:46.410Z,-79
2022-09-18T12:01:28.955Z,-79
2022-09-18T12:04:09.045Z,-78
2022-09-18T12:06:49.640Z,-79
2022-09-18T12:09:28.890Z,-78
2022-09-18T12:12:05.389Z,-77
2022-09-18T12:14:42.816Z,-76
2022-09-18T12:17:22.711Z,-76
2022-09-18T12:19:57.831Z,-77
2022-09-18T12:22:39.690Z,-77
2022-09-18T12:25:15.296Z,-78
2022-09-18T12:27:54.049Z,-77
2022-09-18T12:30:33.793Z,-77
2022-09-18T12:33:31.132Z,-77
2022-09-18T12:37:04.112Z,-77
2022-09-18T12:40:15.020Z,-77
2022-09-18T12:43:00.867Z,-77
2022-09-18T12:46:16.332Z,-78
2022-09-18T12:49:07.031Z,-78
2022-09-18T12:51:43.416Z,-78
2022-09-18T12:54:59.317Z,-77
2022-09-18T12:57:46.642Z,-78
2022-09-18T13:00:18.635Z,-77
2022-09-18T13:02:57.100Z,-77
2022-09-18T13:05:30.810Z,-77
2022-09-18T13:08:12.097Z,-77
2022-09-18T13:10:43.746Z,-76
2022-09-18T13:13:19.887Z,-77
2022-09-18T13:15:55.906Z,-77
2022-09-18T13:18:37.055Z,-77
2022-09-18T13:21:17.855Z,-77
2022-09-18T13:23:48.948Z,-77
2022-09-18T13:26:17.818Z,-78
2022-09-18T13:28:46.679Z,-77
2022-09-18T13:31:31.239Z,-77
2022-09-18T13:34:06.432Z,-78
2022-09-18T13:36:38.664Z,-78
2022-09-18T13:39:18.430Z,-78
2022-09-18T13:41:50.429Z,-78
2022-09-18T13:44:22.706Z,-78
2022-09-18T13:46:57.493Z,-78
2022-09-18T13:49:30.989Z,-78
2022-09-18T13:52:42.766Z,-78
2022-09-18T13:55:36.345Z,-78
2022-09-18T13:58:38.924Z,-78
2022-09-18T14:01:10.003Z,-78
2022-09-18T14:03:41.041Z,-78
2022-09-18T14:06:46.346Z,-77
2022-09-18T14:09:52.548Z,-77
2022-09-18T14:12:22.700Z,-77
2022-09-18T14:15:03.550Z,-77
2022-09-18T14:17:35.153Z,-77
2022-09-18T14:20:19.464Z,-77
2022-09-18T14:22:49.179Z,-77
2022-09-18T14:25:47.227Z,-77
2022-09-18T14:28:17.899Z,-78
2022-09-18T14:31:14.225Z,-77
2022-09-18T14:33:46.438Z,-77
2022-09-18T14:36:15.074Z,-78
2022-09-18T14:38:43.488Z,-78
2022-09-18T14:41:26.470Z,-78
2022-09-18T14:44:01.026Z,-77
2022-09-18T14:46:32.418Z,-77
2022-09-18T14:49:03.368Z,-77
2022-09-18T14:51:49.370Z,-77
2022-09-18T14:54:26.618Z,-78
2022-09-18T14:57:03.617Z,-78
2022-09-18T14:59:33.126Z,-77
2022-09-18T15:02:20.754Z,-77
2022-09-18T15:04:50.114Z,-78
2022-09-18T15:07:21.806Z,-78
2022-09-18T15:09:54.285Z,-77
2022-09-18T15:12:27.140Z,-77
2022-09-18T15:14:55.754Z,-78
2022-09-18T15:17:27.664Z,-77
2022-09-18T15:19:59.220Z,-78
2022-09-18T15:22:29.688Z,-77
2022-09-18T15:25:00.948Z,-77
2022-09-18T15:27:32.615Z,-78
2022-09-18T15:30:06.074Z,-78
2022-09-18T15:32:38.691Z,-78
2022-09-18T15:35:14.328Z,-78
2022-09-18T15:37:51.184Z,-77
2022-09-18T15:40:25.736Z,-77
2022-09-18T15:42:59.717Z,-77
2022-09-18T15:45:31.039Z,-77
2022-09-18T15:48:36.003Z,-77
2022-09-18T15:51:16.453Z,-77
2022-09-18T15:54:09.631Z,-77
2022-09-18T15:56:49.345Z,-77
2022-09-18T15:59:27.519Z,-77
2022-09-18T16:01:56.679Z,-77
2022-09-18T16:04:29.748Z,-77
2022-09-18T16:07:04.069Z,-77
2022-09-18T16:09:43.417Z,-78
2022-09-18T16:12:36.365Z,-78
2022-09-18T16:15:23.134Z,-78
2022-09-18T16:18:04.188Z,-78
2022-09-18T16:20:44.261Z,-78
2022-09-18T16:23:24.292Z,-78
2022-09-18T16:26:12.958Z,-78
2022-09-18T16:28:47.202Z,-78
2022-09-18T16:31:19.526Z,-78
2022-09-18T16:33:57.325Z,-78
2022-09-18T16:36:35.098Z,-78
2022-09-18T16:39:07.910Z,-78
2022-09-18T16:41:36.914Z,-78
2022-09-18T16:44:10.976Z,-78
2022-09-18T16:46:47.360Z,-78
2022-09-18T16:49:20.054Z,-78
2022-09-18T16:51:49.063Z,-78
2022-09-18T16:54:17.510Z,-78
2022-09-18T16:56:51.758Z,-78
2022-09-18T16:59:22.931Z,-78
2022-09-18T17:02:03.795Z,-78
2022-09-18T17:04:33.324Z,-78
2022-09-18T17:07:01.939Z,-77
2022-09-18T17:09:30.800Z,-78
2022-09-18T17:11:59.522Z,-77
2022-09-18T17:14:28.236Z,-78
2022-09-18T17:16:58.110Z,-78
2022-09-18T17:19:26.788Z,-79
2022-09-18T17:21:55.347Z,-78
2022-09-18T17:24:25.616Z,-77
2022-09-18T17:26:54.457Z,-78
2022-09-18T17:29:23.467Z,-78
2022-09-18T17:31:53.079Z,-78
2022-09-18T17:34:23.118Z,-78
2022-09-18T17:36:51.521Z,-78
2022-09-18T17:39:19.975Z,-79
2022-09-18T17:41:48.382Z,-78
2022-09-18T17:44:17.038Z,-79
2022-09-18T17:46:51.262Z,-78
2022-09-18T17:49:20.245Z,-79
2022-09-18T17:51:50.412Z,-78
2022-09-18T17:54:19.171Z,-78
2022-09-18T17:56:47.552Z,-78
2022-09-18T17:59:15.916Z,-79
2022-09-18T18:01:47.035Z,-78
2022-09-18T18:04:16.335Z,-78
2022-09-18T18:06:49.523Z,-78
2022-09-18T18:09:17.930Z,-80
2022-09-18T18:11:46.432Z,-78
2022-09-18T18:14:16.071Z,-79
2022-09-18T18:16:44.822Z,-78
2022-09-18T18:19:22.485Z,-79
2022-09-18T18:21:52.989Z,-79
2022-09-18T18:24:22.340Z,-79
2022-09-18T18:26:51.385Z,-77
2022-09-18T18:29:22.088Z,-80
2022-09-18T18:31:51.999Z,-79
2022-09-18T18:34:25.497Z,-79
2022-09-18T18:36:59.403Z,-79
2022-09-18T18:39:28.017Z,-79
2022-09-18T18:41:56.419Z,-79
2022-09-18T18:44:24.833Z,-79
2022-09-18T18:46:53.246Z,-80
2022-09-18T18:49:21.646Z,-79
2022-09-18T18:51:52.307Z,-79
2022-09-18T18:54:23.753Z,-80
2022-09-18T18:56:52.761Z,-80
2022-09-18T18:59:23.056Z,-79
2022-09-18T19:01:51.647Z,-79
2022-09-18T19:04:20.492Z,-79
2022-09-18T19:06:49.860Z,-79
2022-09-18T19:09:26.036Z,-79
2022-09-18T19:11:55.380Z,-80
2022-09-18T19:14:26.338Z,-80
2022-09-18T19:16:56.253Z,-80
2022-09-18T19:19:28.415Z,-79
2022-09-18T19:21:59.677Z,-80
2022-09-18T19:24:30.325Z,-80
2022-09-18T19:26:59.545Z,-79
2022-09-18T19:29:30.155Z,-80
2022-09-18T19:32:00.377Z,-79
2022-09-18T19:34:28.826Z,-80
2022-09-18T19:36:58.056Z,-80
2022-09-18T19:39:27.855Z,-79
2022-09-18T19:42:01.499Z,-79
2022-09-18T19:44:37.182Z,-81
2022-09-18T19:47:16.486Z,-80
2022-09-18T19:49:49.239Z,-80
2022-09-18T19:52:21.168Z,-80
2022-09-18T19:54:54.642Z,-81
2022-09-18T19:57:24.865Z,-80
2022-09-18T19:59:55.259Z,-79
2022-09-18T20:02:25.460Z,-81
2022-09-18T20:04:53.932Z,-79
2022-09-18T20:07:22.514Z,-79
2022-09-18T20:09:52.308Z,-79
2022-09-18T20:12:21.334Z,-81
2022-09-18T20:14:50.793Z,-82
2022-09-18T20:17:19.515Z,-81
2022-09-18T20:19:48.894Z,-81
2022-09-18T20:22:19.196Z,-82
2022-09-18T20:24:50.020Z,-83
2022-09-18T20:27:20.651Z,-82
2022-09-18T20:29:49.289Z,-82
2022-09-18T20:32:18.160Z,-83
2022-09-18T20:34:47.978Z,-80
2022-09-18T20:37:16.897Z,-81
2022-09-18T20:39:45.333Z,-82
2022-09-18T20:42:13.707Z,-80
2022-09-18T20:44:43.638Z,-82
2022-09-18T20:47:12.034Z,-82
2022-09-18T20:49:40.865Z,-82
2022-09-18T20:52:14.298Z,-82
2022-09-18T20:54:43.146Z,-82
2022-09-18T20:57:12.392Z,-83
2022-09-18T20:59:46.526Z,-81
2022-09-18T21:02:14.962Z,-81
2022-09-18T21:04:47.199Z,-82
2022-09-18T21:07:15.903Z,-82
2022-09-18T21:09:44.318Z,-81
2022-09-18T21:12:12.800Z,-82
2022-09-18T21:14:42.748Z,-82
2022-09-18T21:17:11.141Z,-81
2022-09-18T21:19:40.002Z,-82
2022-09-18T21:22:08.466Z,-82
2022-09-18T21:24:36.988Z,-81
2022-09-18T21:27:06.782Z,-81
2022-09-18T21:29:35.241Z,-82
2022-09-18T21:32:06.224Z,-82
2022-09-18T21:34:35.047Z,-81
2022-09-18T21:37:07.294Z,-82
2022-09-18T21:39:37.131Z,-82
2022-09-18T21:42:09.524Z,-82
2022-09-18T21:44:41.645Z,-82
2022-09-18T21:47:15.495Z,-82
2022-09-18T21:49:44.058Z,-81
2022-09-18T21:52:14.652Z,-82
2022-09-18T21:54:43.122Z,-82
2022-09-18T21:57:11.675Z,-83
2022-09-18T21:59:40.462Z,-82
2022-09-18T22:02:11.801Z,-83
2022-09-18T22:04:45.156Z,-83
2022-09-18T22:07:13.596Z,-82
2022-09-18T22:09:43.083Z,-82
2022-09-18T22:12:12.441Z,-83
2022-09-18T22:14:40.850Z,-82
2022-09-18T22:17:11.636Z,-82
2022-09-18T22:19:41.648Z,-83
2022-09-18T22:22:11.620Z,-83
2022-09-18T22:24:40.096Z,-83
2022-09-18T22:27:11.596Z,-82
2022-09-18T22:29:43.463Z,-83
2022-09-18T22:32:13.490Z,-83
2022-09-18T22:34:42.483Z,-83
2022-09-18T22:37:12.456Z,-83
2022-09-18T22:39:40.886Z,-82
2022-09-18T22:42:09.362Z,-82
2022-09-18T22:44:38.006Z,-81
2022-09-18T22:47:06.587Z,-82
2022-09-18T22:49:36.391Z,-82
2022-09-18T22:52:04.870Z,-82
2022-09-18T22:54:34.381Z,-82
2022-09-18T22:57:03.252Z,-83
2022-09-18T22:59:44.621Z,-82
2022-09-18T23:02:13.066Z,-81
2022-09-18T23:04:43.028Z,-84
2022-09-18T23:07:32.429Z,-83
2022-09-18T23:10:00.916Z,-83
2022-09-18T23:12:29.456Z,-82
2022-09-18T23:14:57.878Z,-82
2022-09-18T23:17:37.349Z,-85
2022-09-18T23:20:07.811Z,-83
2022-09-18T23:22:36.562Z,-83
2022-09-18T23:25:05.433Z,-82
2022-09-18T23:27:33.878Z,-82
2022-09-18T23:30:02.364Z,-82
2022-09-18T23:32:30.802Z,-81
2022-09-18T23:34:59.206Z,-83
2022-09-18T23:37:29.348Z,-82
2022-09-18T23:39:57.817Z,-82
2022-09-18T23:42:26.720Z,-83
2022-09-18T23:44:55.099Z,-83
2022-09-18T23:47:23.514Z,-83
2022-09-18T23:49:51.959Z,-82
2022-09-18T23:52:20.409Z,-82
2022-09-18T23:54:50.297Z,-83
2022-09-18T23:57:18.729Z,-82
2022-09-18T23:59:49.649Z,-83
